Tiempo atmosférico en la estación meteorológica de Padrón, A Coruña (100 m.)



Fecha
DESCASC
Temp. máxima en grados centígrados (hora)
DESCASC
Temp. mínima en grados centígrados (hora)
DESCASC
Temp. media en grados centígrados
DESCASC
Racha de viento máxima en m/sg (hora)
DESCASC
Velocidad máxima media en intervalos de 10 minutos(hora)
DESCASC
Precipitaciones diarias en mm
DESCASC
Precipitaciones de 00:00 a 06:00 en mm
DESCASC
Precipitaciones de 06:00 a 12:00 en mm
DESCASC
Precipitaciones de 12:00 a 18:00 en mm
DESCASC
Precipitaciones de 18:00 a 24:00 en mm
DESCASC
13-10-2019 16.4 (02:10) 11.8 (23:59) 14.1 11.11 (07:20) 4.17 (07:20) 24.9 8.4 3.6 3.8 9.1
12-10-2019 18.7 (16:10) 11.5 (00:20) 15.1 10.56 (17:00) 3.61 (16:40) 0 0 0 0 0
11-10-2019 20.8 (16:10) 10.6 (09:20) 15.7 7.78 (16:40) 5.28 (03:20) 0 0 0 0 0
10-10-2019 23 (15:50) 7.6 (00:00) 15.3 7.78 (12:30) 5 (14:20) 0 0 0 0 0
09-10-2019 19.8 (16:20) 8.5 (00:00) 14.1 6.39 (11:30) 3.89 (05:50) 0.1 0 0.1 0 0
08-10-2019 18.1 (00:00) 10.7 (00:00) 14.4 6.94 (12:20) 3.33 (14:30) 3.9 0.3 2.9 0.7 0
07-10-2019 24.8 (16:10) 10.2 (00:00) 17.5 7.78 (08:30) 5.83 (08:30) 0 0 0 0 0
06-10-2019 22.7 (17:10) 13.5 (00:00) 18.1 4.44 (09:00) 2.78 (06:40) 0.4 0.3 0.1 0 0
05-10-2019 20.6 (14:40) 11 (00:00) 15.8 5.28 (03:10) 3.89 (03:20) 0 0 0 0 0
04-10-2019 20.9 (16:50) 12.7 (00:00) 16.8 3.89 (05:50) 2.78 (05:50) 1 1 0 0 0
03-10-2019 17.9 (14:30) 9.5 (00:00) 13.7 5.28 (06:00) 3.89 (06:00) 4 0 0.1 0 3.9
02-10-2019 21.1 (17:00) 12.5 (00:00) 16.8 3.89 (10:10) 2.22 (14:40) 0 0 0 0 0
01-10-2019 21.3 (14:00) 15 (00:00) 18.1 8.06 (15:00) 2.78 (13:40) 0.3 0.3 0 0 0
30-09-2019 19.9 (17:00) 16.8 (00:00) 18.3 7.5 (17:30) 2.78 (17:20) 4.5 1.4 2.5 0.6 0
29-09-2019 17.8 (15:30) 12.7 (00:00) 15.2 8.33 (10:10) 3.06 (12:00) 6.8 0 0.9 4.7 1.2
28-09-2019 21.6 (15:20) 9.3 (00:00) 15.5 7.22 (11:00) 5.28 (11:00) 0.1 0 0.1 0 0
27-09-2019 20.9 (16:10) 11.8 (00:00) 16.3 6.11 (18:00) 2.22 (23:59) 10.5 1.6 8.9 0 0
26-09-2019 22.5 (14:50) 15.4 (00:00) 18.9 9.17 (15:00) 3.61 (16:40) 0 0 0 0 0
25-09-2019 20.4 (16:00) 13.5 (00:00) 16.9 8.33 (17:20) 3.06 (17:00) 0.2 0.1 0.1 0 0
24-09-2019 20.5 (17:00) 14.8 (00:00) 17.7 11.67 (00:20) 4.72 (02:20) 25.4 24.5 0.9 0 0
23-09-2019 19.4 (15:20) 14.2 (00:00) 16.8 14.17 (23:10) 5.83 (23:10) 8.5 0 0 1 7.5
22-09-2019 20.3 (15:30) 13.2 (00:00) 16.7 12.78 (00:10) 5 (00:10) 7.7 1.2 5.9 0.4 0.2
21-09-2019 17.5 (05:10) 14.2 (00:00) 15.8 13.33 (12:20) 4.72 (23:40) 12.2 0 7.6 4.4 0.2
20-09-2019 21.3 (17:40) 14.6 (00:00) 17.9 8.89 (18:30) 3.33 (18:20) 0.1 0 0.1 0 0
19-09-2019 24.3 (17:10) 13 (00:00) 18.6 6.11 (19:10) 2.5 (17:40) 0 0 0 0 0
18-09-2019 28.4 (16:00) 13.6 (00:00) 21 5.83 (08:00) 4.17 (08:10) 0 0 0 0 0
17-09-2019 30.8 (14:50) 16.5 (00:00) 23.6 6.11 (11:20) 4.44 (11:20) 0.2 0 0 0.2 0
16-09-2019 29.6 (14:30) 15.4 (00:00) 22.5 10.56 (12:00) 7.22 (12:00) 0.2 0 0 0 0.2
15-09-2019 31.5 (17:20) 14.8 (00:00) 23.2 8.06 (00:10) 4.72 (11:20) 0 0 0 0 0

Gráficas

Temp. máximas Temp. mínimas Temp. medias Precipitaciones Rachas de viento máximas Velocidades máximas media en intervalos de 10 minutos

Datos horarios

Fecha y hora oficial Temperatura (ºC) Velocidad del viento (km/h) Dirección del viento Racha (km/h) Dirección de racha Precipitación (mm) Presión (hPa) Tendencia (hPa) Humedad (%)
2019-10-14 23:00:00 9.5 3 Oeste 6 Oeste 0 -- -- 92
2019-10-14 22:00:00 9.8 3 Oeste 7 Oeste 0 -- -- 91
2019-10-14 21:00:00 9.8 0 Calma 10 Sudoeste 0 -- -- 88
2019-10-14 20:00:00 10.8 0 Calma 22 Oeste 0 -- -- 86
2019-10-14 19:00:00 12.8 5 Noroeste 29 Sudoeste 0 -- -- 72
2019-10-14 18:00:00 14.1 8 Oeste 28 Oeste 0 -- -- 66
2019-10-14 17:00:00 13.8 9 Oeste 31 Oeste 0 -- -- 68
2019-10-14 16:00:00 14.7 7 Oeste 29 Oeste 0 -- -- 60
2019-10-14 15:00:00 13.3 7 Noroeste 28 Oeste 0 -- -- 74
2019-10-14 14:00:00 13.7 4 Oeste 21 Oeste 0 -- -- 75
2019-10-14 13:00:00 13.7 5 Oeste 21 Oeste 0.6 -- -- 93
2019-10-14 12:00:00 13.1 6 Oeste 14 Sudoeste 0.5 -- -- 95
2019-10-14 11:00:00 11.5 8 Oeste 25 Sudoeste 0.5 -- -- 95
2019-10-14 10:00:00 11.5 4 Oeste 13 Oeste 1.2 -- -- 95
2019-10-14 09:00:00 11.6 7 Oeste 19 Oeste 9.1 -- -- 95
2019-10-14 08:00:00 11.6 6 Oeste 20 Oeste 8.1 -- -- 95
2019-10-14 07:00:00 12 8 Sudoeste 36 Sudoeste 0.5 -- -- 93
2019-10-14 06:00:00 11.7 3 Noroeste 15 Sudoeste 0.1 -- -- 95
2019-10-14 05:00:00 11.5 2 Noroeste 10 Oeste 0 -- -- 95
2019-10-14 04:00:00 11.6 2 Oeste 15 Oeste 0.1 -- -- 95
2019-10-14 03:00:00 11.6 5 Oeste 12 Oeste 1.1 -- -- 95
2019-10-14 02:00:00 11.5 0 Calma 10 Oeste 1.3 -- -- 94
2019-10-14 01:00:00 11.6 0 Calma 9 Oeste 0.6 -- -- 94
2019-10-14 00:00:00 11.9 0 Calma 10 Nordeste 0.8 -- -- 94
2019-10-13 23:00:00 12.3 6 Nordeste 12 Este 1.7 -- -- 94
2019-10-13 22:00:00 12.3 5 Este 13 Este 2.6 -- -- 94
2019-10-13 21:00:00 12.4 0 Calma 4 Oeste 1.7 -- -- 94
2019-10-13 20:00:00 12.5 0 Calma 8 Oeste 1 -- -- 94
2019-10-13 19:00:00 13.1 4 Oeste 11 Oeste 1.3 -- -- 94
2019-10-13 18:00:00 13.7 6 Oeste 16 Noroeste 1.2 -- -- 94
2019-10-13 17:00:00 14.3 2 Oeste 9 Oeste 1.3 -- -- 94
2019-10-13 16:00:00 14.5 4 Oeste 11 Oeste 0.6 -- -- 93
2019-10-13 15:00:00 14.8 2 Oeste 9 Oeste 0.3 -- -- 92
2019-10-13 14:00:00 15.2 0 Calma 7 Oeste 0.4 -- -- 92
2019-10-13 13:00:00 15.5 0 Calma 6 Sudoeste 0 -- -- 92
2019-10-13 12:00:00 14.5 0 Calma 6 Oeste 0.3 -- -- 94
2019-10-13 11:00:00 14.3 0 Calma 8 Oeste 0 -- -- 94
2019-10-13 10:00:00 14.1 3 Oeste 15 Oeste 0.1 -- -- 94
2019-10-13 09:00:00 13.7 5 Oeste 18 Oeste 0 -- -- 94
2019-10-13 08:00:00 14.3 9 Oeste 40 Oeste 0 -- -- 94
2019-10-13 07:00:00 15.4 12 Oeste 39 Sudoeste 3.2 -- -- 94
2019-10-13 06:00:00 15 9 Sudoeste 28 Oeste 7.1 -- -- 94
2019-10-13 05:00:00 15 11 Oeste 26 Oeste 0.9 -- -- 92
2019-10-13 04:00:00 15.4 7 Sudoeste 24 Oeste 0.4 -- -- 89
2019-10-13 03:00:00 15.4 10 Sudoeste 31 Sudoeste 0 -- -- 84
2019-10-13 02:00:00 16.3 11 Sudoeste 27 Sudoeste 0 -- -- 75
2019-10-13 01:00:00 15.7 5 Oeste 20 Oeste 0 -- -- 76
2019-10-13 00:00:00 15.5 6 Oeste 21 Oeste 0 -- -- 77
2019-10-12 23:00:00 15.8 8 Oeste 21 Sudoeste 0 -- -- 74
2019-10-12 22:00:00 15.5 6 Oeste 21 Sudoeste 0 -- -- 76
2019-10-12 21:00:00 15.9 9 Oeste 24 Oeste 0 -- -- 75
2019-10-12 20:00:00 16.2 11 Oeste 34 Oeste 0 -- -- 73
2019-10-12 19:00:00 16.7 10 Oeste 28 Oeste 0 -- -- 69
2019-10-12 18:00:00 17.2 9 Oeste 31 Oeste 0 -- -- 69
2019-10-12 17:00:00 17.5 11 Oeste 38 Oeste 0 -- -- 66
2019-10-12 16:00:00 18.5 9 Oeste 30 Oeste 0 -- -- 64
2019-10-12 15:00:00 17.4 10 Oeste 29 Noroeste 0 -- -- 68
2019-10-12 14:00:00 17.7 7 Sudoeste 18 Sudoeste 0 -- -- 69
2019-10-12 13:00:00 17.9 6 Oeste 26 Sudoeste 0 -- -- 68
2019-10-12 12:00:00 16.3 9 Sudoeste 25 Sudoeste 0 -- -- 75
2019-10-12 11:00:00 15.9 7 Sudoeste 26 Oeste 0 -- -- 75
2019-10-12 10:00:00 15.3 7 Oeste 15 Oeste 0 -- -- 81
2019-10-12 09:00:00 13.8 4 Noroeste 15 Noroeste 0 -- -- 89
2019-10-12 08:00:00 13.6 3 Oeste 14 Oeste 0 -- -- 89
2019-10-12 07:00:00 13.4 5 Oeste 16 Oeste 0 -- -- 91
2019-10-12 06:00:00 13.3 5 Oeste 13 Oeste 0 -- -- 92
2019-10-12 05:00:00 12.8 3 Oeste 8 Oeste 0 -- -- 92
2019-10-12 04:00:00 12.4 0 Calma 5 Este 0 -- -- 93
2019-10-12 03:00:00 12.5 0 Calma 4 Oeste 0 -- -- 93
2019-10-12 02:00:00 12.2 0 Calma 5 Oeste 0 -- -- 93
2019-10-12 01:00:00 11.7 0 Calma 8 Oeste 0 -- -- 92
2019-10-12 00:00:00 11.9 0 Calma 8 Sudoeste 0 -- -- 90
2019-10-11 23:00:00 13 2 Oeste 8 Sudoeste 0 -- -- 90
2019-10-11 22:00:00 13.1 0 Calma 6 Oeste 0 -- -- 89
2019-10-11 21:00:00 13.9 0 Calma 11 Oeste 0 -- -- 85
2019-10-11 20:00:00 15.2 4 Oeste 16 Noroeste 0 -- -- 79
2019-10-11 19:00:00 17.1 8 Oeste 23 Oeste 0 -- -- 69
2019-10-11 18:00:00 18.3 8 Oeste 26 Oeste 0 -- -- 63
2019-10-11 17:00:00 19.6 10 Oeste 28 Oeste 0 -- -- 58
2019-10-11 16:00:00 20.3 5 Oeste 20 Oeste 0 -- -- 58
2019-10-11 15:00:00 19.1 4 Oeste 14 Oeste 0 -- -- 63
2019-10-11 14:00:00 17.1 4 Oeste 12 Oeste 0 -- -- 73
2019-10-11 13:00:00 14.3 2 Oeste 8 Este 0 -- -- 85
2019-10-11 12:00:00 12.4 4 Este 10 Este 0 -- -- 94
2019-10-11 11:00:00 11.2 6 Este 12 Este 0 -- -- 95
2019-10-11 10:00:00 10.8 6 Este 16 Este 0 -- -- 95
2019-10-11 09:00:00 10.9 10 Este 17 Este 0 -- -- 95
2019-10-11 08:00:00 11.4 10 Este 19 Este 0 -- -- 94
2019-10-11 07:00:00 11.8 14 Este 21 Este 0 -- -- 94
2019-10-11 06:00:00 12.3 11 Este 24 Este 0 -- -- 94
2019-10-11 05:00:00 12.5 8 Este 17 Este 0 -- -- 92
2019-10-11 04:00:00 12.8 12 Este 24 Este 0 -- -- 92
2019-10-11 03:00:00 13.1 17 Este 24 Este 0 -- -- 91
2019-10-11 02:00:00 13.4 10 Este 18 Este 0 -- -- 91
2019-10-11 01:00:00 13.1 7 Este 13 Este 0 -- -- 91
2019-10-11 00:00:00 12.4 4 Este 13 Este 0 -- -- 90
2019-10-10 23:00:00 13.6 5 Nordeste 14 Este 0 -- -- 86
2019-10-10 22:00:00 14.9 0 Calma 13 Nordeste 0 -- -- 83
2019-10-10 21:00:00 16.1 5 Este 24 Este 0 -- -- 76
2019-10-10 20:00:00 18.2 6 Este 14 Este 0 -- -- 64
2019-10-10 19:00:00 20.8 7 Nordeste 15 Nordeste 0 -- -- 52
2019-10-10 18:00:00 21.6 9 Nordeste 21 Nordeste 0 -- -- 46
2019-10-10 17:00:00 22.4 11 Este 22 Este 0 -- -- 44
2019-10-10 16:00:00 22.7 11 Este 24 Sudeste 0 -- -- 46
2019-10-10 15:00:00 21.8 12 Este 28 Este 0 -- -- 47
2019-10-10 14:00:00 20.1 13 Este 26 Este 0 -- -- 50
2019-10-10 13:00:00 17.3 15 Este 28 Este 0 -- -- 60
2019-10-10 12:00:00 15.8 14 Este 25 Este 0 -- -- 67
2019-10-10 11:00:00 12.5 12 Este 22 Este 0 -- -- 82
2019-10-10 10:00:00 9.3 12 Este 20 Este 0 -- -- 94
2019-10-10 09:00:00 7.6 11 Este 18 Este 0 -- -- 94
2019-10-10 08:00:00 8.1 11 Este 17 Este 0 -- -- 95
2019-10-10 07:00:00 8.1 7 Este 17 Este 0 -- -- 94
2019-10-10 06:00:00 8.2 10 Nordeste 17 Este 0 -- -- 95
2019-10-10 05:00:00 8.3 8 Nordeste 15 Este 0 -- -- 94
2019-10-10 04:00:00 9.1 9 Este 17 Nordeste 0 -- -- 93
2019-10-10 03:00:00 9.7 10 Nordeste 13 Nordeste 0 -- -- 92
2019-10-10 02:00:00 10 9 Nordeste 12 Nordeste 0 -- -- 91
2019-10-10 01:00:00 10.3 8 Nordeste 13 Nordeste 0 -- -- 90
2019-10-10 00:00:00 10.8 7 Nordeste 11 Nordeste 0 -- -- 87
2019-10-09 23:00:00 11.8 5 Nordeste 21 Nordeste 0 -- -- 83
2019-10-09 22:00:00 12.6 6 Nordeste 15 Nordeste 0 -- -- 79
2019-10-09 21:00:00 13.8 9 Nordeste 23 Nordeste 0 -- -- 72
2019-10-09 20:00:00 14.9 8 Nordeste 20 Nordeste 0 -- -- 61
2019-10-09 19:00:00 17.5 8 Nordeste 15 Este 0 -- -- 53
2019-10-09 18:00:00 18.5 5 Nordeste 15 Nordeste 0 -- -- 49
2019-10-09 17:00:00 18.4 6 Nordeste 17 Sudeste 0 -- -- 52
2019-10-09 16:00:00 17.8 7 Este 14 Este 0 -- -- 53
2019-10-09 15:00:00 18.3 6 Este 17 Este 0 -- -- 58
2019-10-09 14:00:00 17.1 8 Este 15 Este 0 -- -- 62
2019-10-09 13:00:00 14.4 10 Este 22 Este 0 -- -- 91
2019-10-09 12:00:00 11.3 12 Este 23 Este 0 -- -- 95
2019-10-09 11:00:00 9.8 9 Este 18 Este 0 -- -- 95
2019-10-09 10:00:00 9.1 11 Este 19 Este 0.1 -- -- 95
2019-10-09 09:00:00 8.7 12 Este 21 Este 0 -- -- 95
2019-10-09 08:00:00 8.8 9 Este 19 Este 0 -- -- 95
2019-10-09 07:00:00 8.7 12 Este 21 Este 0 -- -- 95
2019-10-09 06:00:00 9 11 Nordeste 17 Nordeste 0 -- -- 95
2019-10-09 05:00:00 9.2 9 Nordeste 15 Nordeste 0 -- -- 95
2019-10-09 04:00:00 9.3 12 Nordeste 18 Este 0 -- -- 95
2019-10-09 03:00:00 9.6 10 Este 14 Este 0 -- -- 95
2019-10-09 02:00:00 9.7 8 Nordeste 13 Este 0 -- -- 94
2019-10-09 01:00:00 10.1 8 Este 12 Este 0 -- -- 93
2019-10-09 00:00:00 10.8 8 Nordeste 12 Nordeste 0 -- -- 91
2019-10-08 23:00:00 11.3 6 Nordeste 10 Nordeste 0 -- -- 88
2019-10-08 22:00:00 12.6 5 Nordeste 10 Este 0 -- -- 80
2019-10-08 21:00:00 14.1 5 Este 15 Nordeste 0 -- -- 73
2019-10-08 20:00:00 15 10 Nordeste 17 Nordeste 0 -- -- 77
2019-10-08 19:00:00 16.7 4 Este 15 Este 0 -- -- 78
2019-10-08 18:00:00 16.2 9 Este 17 Nordeste 0 -- -- 79
2019-10-08 17:00:00 16.7 4 Este 21 Norte 0 -- -- 84
2019-10-08 16:00:00 17.3 7 Este 19 Sudeste 0 -- -- 81
2019-10-08 15:00:00 17.2 11 Este 21 Este 0 -- -- 84
2019-10-08 14:00:00 16.8 5 Este 16 Sudeste 0.2 -- -- 91
2019-10-08 13:00:00 16.7 4 Nordeste 25 Norte 0.5 -- -- 94
2019-10-08 12:00:00 18 3 Noroeste 11 Oeste 0.8 -- -- 94
2019-10-08 11:00:00 17.6 3 Oeste 8 Oeste 0.4 -- -- 94
2019-10-08 10:00:00 17.1 4 Oeste 16 Oeste 0.8 -- -- 94
2019-10-08 09:00:00 17.1 0 Calma 8 Oeste 0.4 -- -- 94
2019-10-08 08:00:00 17.1 4 Oeste 11 Oeste 0.5 -- -- 94
2019-10-08 07:00:00 17 0 Calma 7 Este 0 -- -- 93
2019-10-08 06:00:00 17.1 0 Calma 5 Sudeste 0 -- -- 92
2019-10-08 05:00:00 17 0 Calma 4 Nordeste 0 -- -- 92
2019-10-08 04:00:00 17 0 Calma 4 Noroeste 0 -- -- 92
2019-10-08 03:00:00 17.2 0 Calma 4 Oeste 0 -- -- 92
2019-10-08 02:00:00 17.5 3 Nordeste 4 Este 0.3 -- -- 91
2019-10-08 01:00:00 18 0 Calma 7 Oeste 0 -- -- 88
2019-10-08 00:00:00 18.1 0 Calma 9 Oeste 0 -- -- 86
2019-10-07 23:00:00 18.2 0 Calma 3 Noroeste 0 -- -- 85
2019-10-07 22:00:00 18.4 0 Calma 5 Noroeste 0 -- -- 83
2019-10-07 21:00:00 18 0 Calma 6 Sudoeste 0 -- -- 82
2019-10-07 20:00:00 20 0 Calma 5 Oeste 0 -- -- 75
2019-10-07 19:00:00 21.5 0 Calma 9 Oeste 0 -- -- 64
2019-10-07 18:00:00 23.6 3 Oeste 11 Oeste 0 -- -- 54
2019-10-07 17:00:00 24.3 4 Oeste 10 Sudoeste 0 -- -- 49
2019-10-07 16:00:00 24.5 4 Oeste 13 Sudoeste 0 -- -- 50
2019-10-07 15:00:00 23.2 3 Oeste 10 Sudoeste 0 -- -- 52
2019-10-07 14:00:00 21.5 4 Sudeste 14 Este 0 -- -- 58
2019-10-07 13:00:00 18.1 9 Este 18 Este 0 -- -- 73
2019-10-07 12:00:00 13.8 9 Este 20 Este 0 -- -- 95
2019-10-07 11:00:00 11.6 15 Este 25 Este 0 -- -- 95
2019-10-07 10:00:00 10.4 15 Este 23 Este 0 -- -- 95
2019-10-07 09:00:00 10.3 15 Este 28 Este 0 -- -- 95
2019-10-07 08:00:00 10.3 16 Este 22 Este 0 -- -- 95
2019-10-07 07:00:00 10.6 15 Este 22 Este 0 -- -- 95
2019-10-07 06:00:00 10.7 15 Este 20 Este 0 -- -- 95
2019-10-07 05:00:00 11.2 10 Nordeste 17 Nordeste 0 -- -- 95
2019-10-07 04:00:00 11.2 7 Este 17 Este 0 -- -- 95
2019-10-07 03:00:00 11.8 10 Nordeste 15 Nordeste 0 -- -- 94
2019-10-07 02:00:00 11.8 8 Este 10 Este 0 -- -- 92
2019-10-07 01:00:00 13 3 Nordeste 7 Nordeste 0 -- -- 90
2019-10-07 00:00:00 13.6 4 Nordeste 8 Nordeste 0 -- -- 89
2019-10-06 23:00:00 14.8 0 Calma 9 Nordeste 0 -- -- 86
2019-10-06 22:00:00 16.1 0 Calma 6 Sur 0 -- -- 82
2019-10-06 21:00:00 16.3 0 Calma 4 Oeste 0 -- -- 80
2019-10-06 20:00:00 17.8 0 Calma 6 Norte 0 -- -- 74
2019-10-06 19:00:00 21.1 2 Noroeste 8 Norte 0 -- -- 57
2019-10-06 18:00:00 22.1 0 Calma 8 Sur 0 -- -- 54
2019-10-06 17:00:00 22.4 0 Calma 12 Este 0 -- -- 53
2019-10-06 16:00:00 21.5 3 Este 15 Este 0 -- -- 54
2019-10-06 15:00:00 21.1 4 Sudeste 15 Este 0 -- -- 57
2019-10-06 14:00:00 19.1 4 Sudeste 12 Este 0 -- -- 72
2019-10-06 13:00:00 17.8 6 Este 12 Este 0 -- -- 80
2019-10-06 12:00:00 16.5 6 Este 12 Este 0 -- -- 91
2019-10-06 11:00:00 15.2 5 Este 9 Este 0 -- -- 94
2019-10-06 10:00:00 14.2 5 Este 12 Este 0 -- -- 94
2019-10-06 09:00:00 13.8 9 Este 16 Este 0 -- -- 94
2019-10-06 08:00:00 13.9 5 Este 10 Este 0.1 -- -- 94
2019-10-06 07:00:00 13.8 6 Este 15 Este 0 -- -- 94
2019-10-06 06:00:00 13.7 9 Nordeste 12 Nordeste 0.2 -- -- 93
2019-10-06 05:00:00 13.8 2 Este 4 Nordeste 0.1 -- -- 91
2019-10-06 04:00:00 13.9 0 Calma 11 Nordeste 0 -- -- 90
2019-10-06 03:00:00 13.9 8 Nordeste 12 Nordeste 0 -- -- 90
2019-10-06 02:00:00 13.9 8 Nordeste 12 Este 0 -- -- 90
2019-10-06 01:00:00 13.7 6 Nordeste 10 Este 0 -- -- 89
2019-10-06 00:00:00 13.8 0 Calma 6 Nordeste 0 -- -- 89
2019-10-05 23:00:00 13.8 5 Nordeste 7 Nordeste 0 -- -- 88
2019-10-05 22:00:00 14.6 0 Calma 3 Sudoeste 0 -- -- 86
2019-10-05 21:00:00 15.3 0 Calma 4 Sudoeste 0 -- -- 83
2019-10-05 20:00:00 16.4 0 Calma 8 Oeste 0 -- -- 78
2019-10-05 19:00:00 18 2 Oeste 9 Oeste 0 -- -- 69
2019-10-05 18:00:00 18.3 0 Calma 10 Oeste 0 -- -- 64
2019-10-05 17:00:00 20.2 3 Oeste 8 Sudoeste 0 -- -- 56
2019-10-05 16:00:00 19.5 0 Calma 7 Sur 0 -- -- 59
2019-10-05 15:00:00 19.4 0 Calma 9 Oeste 0 -- -- 55
2019-10-05 14:00:00 19.6 3 Sudoeste 8 Sudoeste 0 -- -- 57
2019-10-05 13:00:00 18.8 0 Calma 10 Sudoeste 0 -- -- 57
2019-10-05 12:00:00 17.7 0 Calma 13 Este 0 -- -- 68
2019-10-05 11:00:00 15.7 9 Este 15 Este 0 -- -- 84
2019-10-05 10:00:00 12.3 7 Este 10 Este 0 -- -- 94
2019-10-05 09:00:00 11.6 5 Nordeste 13 Nordeste 0 -- -- 94
2019-10-05 08:00:00 11.7 4 Nordeste 12 Nordeste 0 -- -- 94
2019-10-05 07:00:00 11.6 8 Este 15 Nordeste 0 -- -- 94
2019-10-05 06:00:00 11.7 9 Nordeste 16 Este 0 -- -- 94
2019-10-05 05:00:00 11.6 9 Este 15 Este 0 -- -- 94
2019-10-05 04:00:00 11.5 11 Este 19 Este 0 -- -- 94
2019-10-05 03:00:00 11.5 12 Nordeste 17 Nordeste 0 -- -- 94
2019-10-05 02:00:00 11.2 8 Nordeste 11 Nordeste 0 -- -- 93
2019-10-05 01:00:00 11.7 7 Nordeste 9 Nordeste 0 -- -- 92
2019-10-05 00:00:00 12.8 6 Nordeste 9 Nordeste 0 -- -- 91
2019-10-04 23:00:00 13.9 3 Nordeste 8 Nordeste 0 -- -- 90
2019-10-04 22:00:00 14.1 0 Calma 8 Este 0 -- -- 89
2019-10-04 21:00:00 15 7 Nordeste 9 Nordeste 0 -- -- 85
2019-10-04 20:00:00 16.9 0 Calma 8 Norte 0 -- -- 72
2019-10-04 19:00:00 18.1 3 Norte 10 Norte 0 -- -- 69
2019-10-04 18:00:00 19.4 2 Oeste 9 Oeste 0 -- -- 67
2019-10-04 17:00:00 20.2 0 Calma 8 Norte 0 -- -- 58
2019-10-04 16:00:00 19 0 Calma 7 Norte 0 -- -- 69
2019-10-04 15:00:00 19 0 Calma 10 Este 0 -- -- 69
2019-10-04 14:00:00 19.5 5 Este 10 Este 0 -- -- 68
2019-10-04 13:00:00 18.1 0 Calma 6 Este 0 -- -- 85
2019-10-04 12:00:00 17.6 0 Calma 5 Sudeste 0 -- -- 89
2019-10-04 11:00:00 16.6 2 Nordeste 6 Este 0 -- -- 94
2019-10-04 10:00:00 15.8 3 Este 8 Este 0 -- -- 94
2019-10-04 09:00:00 15.2 0 Calma 6 Este 0 -- -- 94
2019-10-04 08:00:00 15.3 0 Calma 8 Este 0 -- -- 94
2019-10-04 07:00:00 15.5 6 Este 9 Este 0 -- -- 94
2019-10-04 06:00:00 15.5 9 Nordeste 14 Nordeste 0 -- -- 94
2019-10-04 05:00:00 15.6 0 Calma 3 Sudoeste 0 -- -- 94
2019-10-04 04:00:00 15.6 0 Calma 3 Oeste 0 -- -- 94
2019-10-04 03:00:00 15.8 2 Sudoeste 10 Sur 0.9 -- -- 94
2019-10-04 02:00:00 15.9 0 Calma 2 Sudoeste 0 -- -- 94
2019-10-04 01:00:00 15.8 0 Calma 0 Calma 0.1 -- -- 94
2019-10-04 00:00:00 15.7 0 Calma 4 Oeste 0.1 -- -- 94
2019-10-03 23:00:00 15.6 0 Calma 6 Oeste 0.4 -- -- 94
2019-10-03 22:00:00 15.5 0 Calma 5 Oeste 1.2 -- -- 94
2019-10-03 21:00:00 15.3 0 Calma 9 Sudoeste 0.9 -- -- 94
2019-10-03 20:00:00 15.4 4 Oeste 12 Oeste 0.9 -- -- 94
2019-10-03 19:00:00 15.6 3 Oeste 14 Oeste 0.4 -- -- 92
2019-10-03 18:00:00 16.6 3 Oeste 18 Oeste 0 -- -- 86
2019-10-03 17:00:00 17.2 4 Oeste 17 Oeste 0 -- -- 77
2019-10-03 16:00:00 17.5 4 Oeste 15 Oeste 0 -- -- 77
2019-10-03 15:00:00 17.3 5 Oeste 17 Oeste 0 -- -- 75
2019-10-03 14:00:00 17.5 6 Oeste 17 Oeste 0 -- -- 75
2019-10-03 13:00:00 16.8 6 Oeste 15 Oeste 0 -- -- 82
2019-10-03 12:00:00 15 3 Oeste 15 Nordeste 0 -- -- 94
2019-10-03 11:00:00 11.6 9 Nordeste 15 Nordeste 0 -- -- 95
2019-10-03 10:00:00 10.4 9 Nordeste 15 Nordeste 0 -- -- 95
2019-10-03 09:00:00 9.6 10 Este 15 Este 0.1 -- -- 95
2019-10-03 08:00:00 9.7 12 Nordeste 15 Este 0 -- -- 95
2019-10-03 07:00:00 9.8 8 Nordeste 17 Este 0 -- -- 95
2019-10-03 06:00:00 10 14 Nordeste 19 Nordeste 0 -- -- 95
2019-10-03 05:00:00 10 10 Nordeste 17 Nordeste 0 -- -- 95
2019-10-03 04:00:00 10.2 4 Nordeste 13 Este 0 -- -- 94
2019-10-03 03:00:00 10.9 6 Este 14 Nordeste 0 -- -- 93
2019-10-03 02:00:00 11.8 8 Nordeste 12 Nordeste 0 -- -- 92
2019-10-03 01:00:00 11.8 3 Este 11 Este 0 -- -- 92
2019-10-03 00:00:00 12.7 6 Nordeste 11 Nordeste 0 -- -- 90
2019-10-02 23:00:00 13.3 5 Nordeste 12 Este 0 -- -- 87
2019-10-02 22:00:00 14.3 8 Nordeste 10 Nordeste 0 -- -- 85
2019-10-02 21:00:00 15.9 0 Calma 10 Norte 0 -- -- 77
2019-10-02 20:00:00 16.9 0 Calma 14 Norte 0 -- -- 69
2019-10-02 19:00:00 19.1 2 Nordeste 9 Nordeste 0 -- -- 58
2019-10-02 18:00:00 19.7 2 Norte 9 Oeste 0 -- -- 56
2019-10-02 17:00:00 20.6 0 Calma 8 Norte 0 -- -- 50
2019-10-02 16:00:00 19.6 0 Calma 11 Este 0 -- -- 53
2019-10-02 15:00:00 18.9 7 Este 14 Este 0 -- -- 56
2019-10-02 14:00:00 19.3 3 Oeste 10 Sur 0 -- -- 57
2019-10-02 13:00:00 18.4 4 Sur 13 Sur 0 -- -- 61
2019-10-02 12:00:00 16.5 0 Calma 10 Sur 0 -- -- 78
2019-10-02 11:00:00 14.9 0 Calma 14 Este 0 -- -- 93
2019-10-02 10:00:00 13.5 8 Nordeste 11 Nordeste 0 -- -- 94
2019-10-02 09:00:00 13 0 Calma 6 Nordeste 0 -- -- 94
2019-10-02 08:00:00 13 3 Nordeste 9 Nordeste 0 -- -- 93
2019-10-02 07:00:00 12.8 2 Este 8 Nordeste 0 -- -- 93
2019-10-02 06:00:00 12.8 6 Nordeste 8 Nordeste 0 -- -- 93
2019-10-02 05:00:00 13.1 0 Calma 6 Nordeste 0 -- -- 93
2019-10-02 04:00:00 13.1 2 Nordeste 5 Nordeste 0 -- -- 92
2019-10-02 03:00:00 14 0 Calma 3 Sudoeste 0 -- -- 91
2019-10-02 02:00:00 14.2 0 Calma 3 Oeste 0 -- -- 90
2019-10-02 01:00:00 14.8 0 Calma 2 Sudoeste 0 -- -- 88
2019-10-02 00:00:00 15.1 0 Calma 3 Sudoeste 0 -- -- 86
2019-10-01 23:00:00 15.4 0 Calma 3 Sudoeste 0 -- -- 84
2019-10-01 22:00:00 15.2 0 Calma 11 Oeste 0 -- -- 81
2019-10-01 21:00:00 15.8 0 Calma 12 Oeste 0 -- -- 81
2019-10-01 20:00:00 17.1 3 Oeste 14 Oeste 0 -- -- 74
2019-10-01 19:00:00 18.4 6 Oeste 22 Oeste 0 -- -- 66
2019-10-01 18:00:00 20.3 6 Oeste 21 Oeste 0 -- -- 59
2019-10-01 17:00:00 20 8 Oeste 23 Oeste 0 -- -- 70
2019-10-01 16:00:00 18.7 10 Oeste 26 Oeste 0 -- -- 74
2019-10-01 15:00:00 20.2 10 Oeste 29 Oeste 0 -- -- 68
2019-10-01 14:00:00 20.4 8 Oeste 23 Oeste 0 -- -- 66
2019-10-01 13:00:00 20 7 Oeste 21 Oeste 0 -- -- 70
2019-10-01 12:00:00 19.4 6 Oeste 21 Oeste 0 -- -- 85
2019-10-01 11:00:00 18.5 6 Oeste 15 Oeste 0 -- -- 94
2019-10-01 10:00:00 16.9 4 Oeste 14 Oeste 0 -- -- 95
2019-10-01 09:00:00 16.5 4 Oeste 13 Oeste 0 -- -- 94
2019-10-01 08:00:00 16.3 5 Oeste 12 Oeste 0 -- -- 95
2019-10-01 07:00:00 16.8 5 Oeste 22 Oeste 0 -- -- 94
2019-10-01 06:00:00 16.9 8 Oeste 21 Oeste 0 -- -- 95
2019-10-01 05:00:00 16.7 5 Oeste 13 Oeste 0.1 -- -- 94
2019-10-01 04:00:00 16.8 5 Oeste 17 Oeste 0.1 -- -- 93
2019-10-01 03:00:00 16.7 5 Oeste 18 Oeste 0.1 -- -- 93
2019-10-01 02:00:00 16.9 5 Oeste 14 Sudoeste 0 -- -- 94
2019-10-01 01:00:00 17 6 Oeste 16 Oeste 0 -- -- 94
2019-10-01 00:00:00 17.2 4 Noroeste 14 Oeste 0 -- -- 94
2019-09-30 23:00:00 17.3 3 Oeste 11 Noroeste 0 -- -- 94
2019-09-30 22:00:00 17.7 3 Oeste 16 Oeste 0 -- -- 94
2019-09-30 21:00:00 17.7 6 Oeste 18 Oeste 0 -- -- 94
2019-09-30 20:00:00 18 7 Oeste 21 Oeste 0 -- -- 94
2019-09-30 19:00:00 18.5 8 Oeste 23 Oeste 0 -- -- 93
2019-09-30 18:00:00 19 9 Oeste 27 Oeste 0 -- -- 94
2019-09-30 17:00:00 19.8 9 Oeste 26 Oeste 0 -- -- 94
2019-09-30 16:00:00 18.9 7 Oeste 22 Oeste 0 -- -- 94
2019-09-30 15:00:00 18.6 6 Oeste 24 Oeste 0 -- -- 94
2019-09-30 14:00:00 18.2 9 Oeste 25 Oeste 0 -- -- 94
2019-09-30 13:00:00 18.8 9 Oeste 23 Oeste 0.6 -- -- 94
2019-09-30 12:00:00 18.4 5 Oeste 17 Sudoeste 0.1 -- -- 94
2019-09-30 11:00:00 18.1 3 Noroeste 10 Oeste 0.1 -- -- 94
2019-09-30 10:00:00 17.6 3 Oeste 10 Oeste 0.7 -- -- 94
2019-09-30 09:00:00 17.4 4 Oeste 10 Oeste 0.5 -- -- 94
2019-09-30 08:00:00 17.4 2 Oeste 9 Oeste 0.7 -- -- 94
2019-09-30 07:00:00 17.3 0 Calma 7 Oeste 0.4 -- -- 94
2019-09-30 06:00:00 17.3 2 Noroeste 10 Oeste 0.5 -- -- 94
2019-09-30 05:00:00 17.1 0 Calma 6 Noroeste 0.2 -- -- 94
2019-09-30 04:00:00 17.1 3 Oeste 7 Oeste 0.4 -- -- 94
2019-09-30 03:00:00 17.1 0 Calma 5 Oeste 0.1 -- -- 94
2019-09-30 02:00:00 17 0 Calma 6 Oeste 0.2 -- -- 94
2019-09-30 01:00:00 16.9 0 Calma 9 Oeste 0 -- -- 94
2019-09-30 00:00:00 16.8 4 Oeste 12 Oeste 0.1 -- -- 94
2019-09-29 23:00:00 16.8 4 Oeste 10 Oeste 0.2 -- -- 94
2019-09-29 22:00:00 16.9 4 Oeste 19 Oeste 0 -- -- 94
2019-09-29 21:00:00 16.9 6 Oeste 19 Oeste 0.5 -- -- 94
2019-09-29 20:00:00 17 7 Oeste 19 Oeste 0.1 -- -- 94
2019-09-29 19:00:00 17.2 6 Noroeste 15 Oeste 0.3 -- -- 94
2019-09-29 18:00:00 17.4 6 Oeste 17 Oeste 0 -- -- 95
2019-09-29 17:00:00 17.5 5 Noroeste 20 Oeste 0.2 -- -- 94
2019-09-29 16:00:00 17.5 6 Oeste 21 Oeste 0.5 -- -- 94
2019-09-29 15:00:00 17.6 9 Oeste 23 Sudoeste 1.7 -- -- 94
2019-09-29 14:00:00 17.2 9 Oeste 24 Oeste 1.1 -- -- 94
2019-09-29 13:00:00 16.9 10 Oeste 23 Oeste 1.2 -- -- 94
2019-09-29 12:00:00 16.3 11 Oeste 29 Oeste 0.3 -- -- 95
2019-09-29 11:00:00 15.9 8 Oeste 30 Oeste 0.2 -- -- 94
2019-09-29 10:00:00 15.2 10 Oeste 26 Sudoeste 0.3 -- -- 95
2019-09-29 09:00:00 15.1 8 Oeste 21 Sudoeste 0.1 -- -- 93
2019-09-29 08:00:00 15.1 6 Oeste 27 Oeste 0 -- -- 93
2019-09-29 07:00:00 14.4 4 Oeste 20 Oeste 0 -- -- 93
2019-09-29 06:00:00 14.5 4 Oeste 12 Sudoeste 0 -- -- 87
2019-09-29 05:00:00 14.6 3 Noroeste 15 Oeste 0 -- -- 83
2019-09-29 04:00:00 14.6 9 Oeste 22 Oeste 0 -- -- 83
2019-09-29 03:00:00 14.3 3 Oeste 9 Oeste 0 -- -- 86
2019-09-29 02:00:00 14.1 2 Noroeste 6 Oeste 0 -- -- 88
2019-09-29 01:00:00 13.5 0 Calma 6 Sudoeste 0 -- -- 89
2019-09-29 00:00:00 12.7 0 Calma 9 Oeste 0 -- -- 89
2019-09-28 23:00:00 13 0 Calma 10 Oeste 0 -- -- 88
2019-09-28 22:00:00 13.7 5 Oeste 11 Oeste 0 -- -- 83
2019-09-28 21:00:00 14.2 3 Oeste 17 Oeste 0 -- -- 79
2019-09-28 20:00:00 16.1 7 Oeste 18 Oeste 0 -- -- 70
2019-09-28 19:00:00 18.5 6 Oeste 19 Oeste 0 -- -- 57
2019-09-28 18:00:00 20.1 5 Oeste 20 Oeste 0 -- -- 53
2019-09-28 17:00:00 21.1 6 Oeste 18 Oeste 0 -- -- 51
2019-09-28 16:00:00 21.5 5 Oeste 17 Oeste 0 -- -- 52
2019-09-28 15:00:00 21.1 5 Oeste 13 Oeste 0 -- -- 53
2019-09-28 14:00:00 19.8 4 Sudoeste 13 Nordeste 0 -- -- 55
2019-09-28 13:00:00 16.5 8 Este 23 Este 0 -- -- 77
2019-09-28 12:00:00 12.7 14 Este 25 Este 0 -- -- 95
2019-09-28 11:00:00 10.1 19 Este 26 Este 0 -- -- 95
2019-09-28 10:00:00 9.8 13 Este 22 Este 0 -- -- 96
2019-09-28 09:00:00 9.4 13 Este 22 Este 0 -- -- 95
2019-09-28 08:00:00 9.4 15 Este 23 Este 0.1 -- -- 95
2019-09-28 07:00:00 9.6 15 Este 22 Este 0 -- -- 95
2019-09-28 06:00:00 9.7 13 Este 21 Este 0 -- -- 95
2019-09-28 05:00:00 10 10 Nordeste 16 Nordeste 0 -- -- 95
2019-09-28 04:00:00 10.3 9 Nordeste 18 Nordeste 0 -- -- 95
2019-09-28 03:00:00 10.7 10 Nordeste 15 Nordeste 0 -- -- 95
2019-09-28 02:00:00 11.1 9 Nordeste 14 Nordeste 0 -- -- 94
2019-09-28 01:00:00 11.3 8 Este 11 Nordeste 0 -- -- 92
2019-09-28 00:00:00 11.9 8 Nordeste 11 Este 0 -- -- 91
2019-09-27 23:00:00 12.9 6 Nordeste 9 Nordeste 0 -- -- 88
2019-09-27 22:00:00 13.8 5 Nordeste 6 Nordeste 0 -- -- 81
2019-09-27 21:00:00 15.7 0 Calma 4 Sudoeste 0 -- -- 71
2019-09-27 20:00:00 17.3 0 Calma 7 Oeste 0 -- -- 67
2019-09-27 19:00:00 19.4 4 Oeste 18 Sudoeste 0 -- -- 61
2019-09-27 18:00:00 20.1 7 Oeste 22 Oeste 0 -- -- 63
2019-09-27 17:00:00 20.4 5 Oeste 20 Oeste 0 -- -- 70
2019-09-27 16:00:00 20.8 7 Oeste 19 Oeste 0 -- -- 71
2019-09-27 15:00:00 19.3 6 Oeste 20 Oeste 0 -- -- 76
2019-09-27 14:00:00 19.4 6 Oeste 15 Oeste 0 -- -- 90
2019-09-27 13:00:00 17.6 5 Oeste 17 Sudoeste 0 -- -- 94
2019-09-27 12:00:00 16.8 6 Oeste 17 Oeste 0.1 -- -- 95
2019-09-27 11:00:00 15.9 4 Oeste 11 Oeste 1.1 -- -- 94
2019-09-27 10:00:00 15.5 3 Noroeste 9 Noroeste 2.4 -- -- 95
2019-09-27 09:00:00 15.2 0 Calma 9 Oeste 0.9 -- -- 95
2019-09-27 08:00:00 15.2 2 Oeste 13 Sudoeste 2.7 -- -- 95
2019-09-27 07:00:00 15.1 5 Oeste 15 Oeste 1.7 -- -- 95
2019-09-27 06:00:00 15.3 3 Noroeste 16 Noroeste 0.7 -- -- 94
2019-09-27 05:00:00 15.3 6 Oeste 21 Sudoeste 0.6 -- -- 94
2019-09-27 04:00:00 15.8 5 Oeste 14 Sur 0.1 -- -- 93
2019-09-27 03:00:00 16.1 4 Oeste 16 Oeste 0.2 -- -- 92
2019-09-27 02:00:00 16.7 5 Sudoeste 18 Sudoeste 0 -- -- 86
2019-09-27 01:00:00 16.7 4 Oeste 13 Sudoeste 0 -- -- 86
2019-09-27 00:00:00 17 4 Oeste 13 Oeste 0 -- -- 84
2019-09-26 23:00:00 16.8 4 Oeste 12 Oeste 0 -- -- 83
2019-09-26 22:00:00 16.8 4 Oeste 15 Sudoeste 0 -- -- 81
2019-09-26 21:00:00 17.2 7 Oeste 19 Oeste 0 -- -- 79
2019-09-26 20:00:00 17.6 6 Oeste 23 Oeste 0 -- -- 75
2019-09-26 19:00:00 18 8 Oeste 30 Oeste 0 -- -- 70
2019-09-26 18:00:00 19.1 10 Oeste 28 Oeste 0 -- -- 66
2019-09-26 17:00:00 19.3 12 Oeste 31 Oeste 0 -- -- 61
2019-09-26 16:00:00 20.9 13 Oeste 30 Oeste 0 -- -- 57
2019-09-26 15:00:00 21.3 11 Oeste 33 Oeste 0 -- -- 55
2019-09-26 14:00:00 20.9 9 Oeste 31 Oeste 0 -- -- 56
2019-09-26 13:00:00 19.6 7 Oeste 30 Sudoeste 0 -- -- 66
2019-09-26 12:00:00 18 9 Oeste 26 Oeste 0 -- -- 81
2019-09-26 11:00:00 17.1 6 Oeste 17 Sudoeste 0 -- -- 83
2019-09-26 10:00:00 16.5 4 Oeste 10 Oeste 0 -- -- 91
2019-09-26 09:00:00 15.8 3 Oeste 12 Sudoeste 0 -- -- 92
2019-09-26 08:00:00 15.7 3 Oeste 14 Oeste 0 -- -- 92
2019-09-26 07:00:00 15.8 2 Oeste 8 Oeste 0 -- -- 92
2019-09-26 06:00:00 15.8 3 Oeste 9 Oeste 0 -- -- 92
2019-09-26 05:00:00 15.9 4 Oeste 12 Oeste 0 -- -- 92
2019-09-26 04:00:00 15.8 5 Oeste 15 Oeste 0 -- -- 92
2019-09-26 03:00:00 15.7 5 Oeste 12 Oeste 0 -- -- 92
2019-09-26 02:00:00 15.8 3 Oeste 10 Oeste 0 -- -- 92
2019-09-26 01:00:00 15.4 3 Oeste 12 Oeste 0 -- -- 92
2019-09-26 00:00:00 15.7 4 Oeste 10 Oeste 0 -- -- 91
2019-09-25 23:00:00 15.9 2 Oeste 10 Oeste 0 -- -- 90
2019-09-25 22:00:00 15.9 3 Oeste 11 Oeste 0 -- -- 89
2019-09-25 21:00:00 16 6 Oeste 18 Oeste 0 -- -- 86
2019-09-25 20:00:00 16.5 6 Oeste 26 Oeste 0 -- -- 83
2019-09-25 19:00:00 17.5 8 Oeste 21 Oeste 0 -- -- 79
2019-09-25 18:00:00 17.8 6 Oeste 30 Oeste 0 -- -- 75
2019-09-25 17:00:00 17.8 11 Oeste 27 Noroeste 0 -- -- 73
2019-09-25 16:00:00 19.3 8 Oeste 29 Oeste 0 -- -- 68
2019-09-25 15:00:00 17.5 10 Oeste 22 Sudoeste 0 -- -- 73
2019-09-25 14:00:00 17.3 8 Oeste 19 Oeste 0 -- -- 77
2019-09-25 13:00:00 16.7 6 Oeste 17 Oeste 0 -- -- 86
2019-09-25 12:00:00 16.3 4 Oeste 16 Oeste 0 -- -- 91
2019-09-25 11:00:00 15.9 5 Oeste 13 Oeste 0 -- -- 94
2019-09-25 10:00:00 14.9 4 Oeste 12 Oeste 0 -- -- 94
2019-09-25 09:00:00 14.6 3 Oeste 8 Oeste 0 -- -- 94
2019-09-25 08:00:00 14.8 2 Oeste 8 Oeste 0 -- -- 94
2019-09-25 07:00:00 14.6 0 Calma 5 Noroeste 0.1 -- -- 94
2019-09-25 06:00:00 14.6 2 Oeste 7 Oeste 0 -- -- 94
2019-09-25 05:00:00 14.4 2 Oeste 8 Oeste 0 -- -- 94
2019-09-25 04:00:00 13.5 3 Oeste 6 Oeste 0 -- -- 94
2019-09-25 03:00:00 13.9 0 Calma 7 Oeste 0.1 -- -- 93
2019-09-25 02:00:00 14.1 0 Calma 6 Oeste 0 -- -- 93
2019-09-25 01:00:00 14.8 2 Oeste 9 Oeste 0 -- -- 92
2019-09-25 00:00:00 15 4 Oeste 10 Noroeste 0 -- -- 89
2019-09-24 23:00:00 15 3 Oeste 8 Oeste 0 -- -- 88
2019-09-24 22:00:00 14.9 4 Oeste 10 Oeste 0 -- -- 85
2019-09-24 21:00:00 15 2 Oeste 17 Oeste 0 -- -- 81
2019-09-24 20:00:00 16.1 5 Oeste 20 Oeste 0 -- -- 71
2019-09-24 19:00:00 17.5 6 Oeste 22 Oeste 0 -- -- 69
2019-09-24 18:00:00 18.4 6 Oeste 21 Oeste 0 -- -- 66
2019-09-24 17:00:00 20.4 9 Oeste 31 Oeste 0 -- -- 64
2019-09-24 16:00:00 19.8 6 Oeste 24 Oeste 0 -- -- 79
2019-09-24 15:00:00 18.7 10 Oeste 27 Oeste 0 -- -- 80
2019-09-24 14:00:00 18.5 11 Oeste 25 Oeste 0 -- -- 80
2019-09-24 13:00:00 19.5 9 Oeste 22 Oeste 0 -- -- 85
2019-09-24 12:00:00 17.5 8 Oeste 22 Oeste 0 -- -- 95
2019-09-24 11:00:00 17.5 7 Oeste 19 Oeste 0.1 -- -- 95
2019-09-24 10:00:00 17.3 5 Oeste 15 Oeste 0 -- -- 95
2019-09-24 09:00:00 16.9 4 Oeste 13 Oeste 0 -- -- 95
2019-09-24 08:00:00 16.9 7 Oeste 19 Oeste 0.4 -- -- 95
2019-09-24 07:00:00 17.1 6 Oeste 32 Oeste 0.4 -- -- 95
2019-09-24 06:00:00 17.1 11 Oeste 37 Oeste 0.9 -- -- 95
2019-09-24 05:00:00 17.2 15 Oeste 42 Oeste 2.5 -- -- 95
2019-09-24 04:00:00 17.2 13 Oeste 36 Sudoeste 6.8 -- -- 95
2019-09-24 03:00:00 16.5 12 Oeste 42 Sudoeste 6.4 -- -- 95
2019-09-24 02:00:00 16.5 10 Sudoeste 34 Oeste 6.5 -- -- 95
2019-09-24 01:00:00 16.2 7 Sudoeste 42 Sudoeste 1.4 -- -- 95
2019-09-24 00:00:00 16.3 10 Sudoeste 51 Sudoeste 0.8 -- -- 94
2019-09-23 23:00:00 16.3 12 Sudoeste 36 Sudoeste 0.7 -- -- 95
2019-09-23 22:00:00 16 4 Oeste 23 Sur 3.5 -- -- 95
2019-09-23 21:00:00 16 5 Oeste 18 Oeste 1.4 -- -- 94
2019-09-23 20:00:00 16 8 Oeste 23 Oeste 0.7 -- -- 95
2019-09-23 19:00:00 16.1 7 Oeste 32 Oeste 0.4 -- -- 94
2019-09-23 18:00:00 16.1 13 Oeste 36 Oeste 0.5 -- -- 94
2019-09-23 17:00:00 16.5 15 Oeste 46 Oeste 0.1 -- -- 91
2019-09-23 16:00:00 17.5 19 Oeste 45 Oeste 0 -- -- 80
2019-09-23 15:00:00 18.3 18 Oeste 42 Oeste 0.4 -- -- 80
2019-09-23 14:00:00 18.4 13 Oeste 47 Oeste 0 -- -- 71
2019-09-23 13:00:00 18 14 Oeste 34 Oeste 0 -- -- 76
2019-09-23 12:00:00 16.9 13 Oeste 37 Oeste 0 -- -- 79
2019-09-23 11:00:00 16.8 11 Oeste 38 Oeste 0 -- -- 80
2019-09-23 10:00:00 15.5 8 Sudoeste 24 Sudoeste 0 -- -- 86
2019-09-23 09:00:00 15 5 Oeste 20 Sudoeste 0 -- -- 87
2019-09-23 08:00:00 15 10 Sudoeste 26 Sudoeste 0 -- -- 86
2019-09-23 07:00:00 15 8 Oeste 23 Sudoeste 0 -- -- 89
2019-09-23 06:00:00 15 7 Sudoeste 23 Sudoeste 0 -- -- 91
2019-09-23 05:00:00 15 7 Sudoeste 24 Oeste 0 -- -- 92
2019-09-23 04:00:00 15 6 Sudoeste 20 Sudoeste 0 -- -- 93
2019-09-23 03:00:00 14.7 4 Oeste 16 Sudoeste 0 -- -- 93
2019-09-23 02:00:00 14.6 5 Oeste 11 Oeste 0 -- -- 93
2019-09-23 01:00:00 14.2 3 Oeste 10 Sudoeste 0 -- -- 93
2019-09-23 00:00:00 14.8 4 Oeste 11 Oeste 0.1 -- -- 93
2019-09-22 23:00:00 14.9 2 Oeste 9 Sudoeste 0.1 -- -- 90
2019-09-22 22:00:00 14.9 3 Oeste 18 Oeste 0 -- -- 88
2019-09-22 21:00:00 15.7 6 Oeste 17 Oeste 0 -- -- 86
2019-09-22 20:00:00 16.7 7 Oeste 27 Oeste 0 -- -- 82
2019-09-22 19:00:00 18.3 8 Oeste 32 Oeste 0 -- -- 75
2019-09-22 18:00:00 18.6 10 Oeste 30 Oeste 0 -- -- 71
2019-09-22 17:00:00 20.2 14 Oeste 35 Oeste 0 -- -- 66
2019-09-22 16:00:00 18.8 14 Oeste 34 Oeste 0 -- -- 69
2019-09-22 15:00:00 18.8 12 Oeste 30 Oeste 0 -- -- 75
2019-09-22 14:00:00 17.4 12 Oeste 35 Sudoeste 0 -- -- 80
2019-09-22 13:00:00 16.7 9 Oeste 32 Oeste 0.4 -- -- 94
2019-09-22 12:00:00 16 7 Oeste 23 Oeste 5.4 -- -- 95
2019-09-22 11:00:00 15.2 4 Oeste 12 Oeste 0 -- -- 95
2019-09-22 10:00:00 14.5 3 Oeste 8 Sudoeste 0.1 -- -- 95
2019-09-22 09:00:00 13.8 5 Oeste 11 Oeste 0.1 -- -- 95
2019-09-22 08:00:00 13.9 3 Noroeste 19 Oeste 0.2 -- -- 95
2019-09-22 07:00:00 14.3 6 Oeste 22 Oeste 0.1 -- -- 95
2019-09-22 06:00:00 14.2 8 Oeste 24 Oeste 0 -- -- 95
2019-09-22 05:00:00 13.9 6 Oeste 22 Oeste 0 -- -- 95
2019-09-22 04:00:00 13.5 6 Oeste 16 Oeste 0 -- -- 95
2019-09-22 03:00:00 13.7 5 Oeste 17 Oeste 0 -- -- 95
2019-09-22 02:00:00 13.3 5 Oeste 24 Oeste 0.1 -- -- 94
2019-09-22 01:00:00 14.7 13 Oeste 46 Oeste 1.1 -- -- 94
2019-09-22 00:00:00 16.3 15 Oeste 43 Oeste 0 -- -- 88
2019-09-21 23:00:00 16.2 15 Oeste 34 Sudoeste 0 -- -- 91
2019-09-21 22:00:00 15.7 10 Oeste 31 Oeste 0.2 -- -- 93
2019-09-21 21:00:00 15.7 12 Oeste 36 Oeste 0 -- -- 92
2019-09-21 20:00:00 16.2 13 Oeste 30 Oeste 0 -- -- 92
2019-09-21 19:00:00 16.6 11 Oeste 31 Oeste 0 -- -- 93
2019-09-21 18:00:00 16.7 8 Oeste 19 Oeste 0 -- -- 94
2019-09-21 17:00:00 15.9 6 Oeste 25 Oeste 0 -- -- 94
2019-09-21 16:00:00 16 11 Oeste 40 Oeste 0.2 -- -- 95
2019-09-21 15:00:00 16.9 12 Oeste 33 Oeste 2.2 -- -- 94
2019-09-21 14:00:00 17 10 Oeste 26 Oeste 1.2 -- -- 94
2019-09-21 13:00:00 16.4 9 Oeste 48 Sudoeste 0.8 -- -- 95
2019-09-21 12:00:00 16.9 10 Oeste 23 Oeste 3.2 -- -- 94
2019-09-21 11:00:00 16.8 6 Oeste 31 Oeste 1.6 -- -- 95
2019-09-21 10:00:00 16.7 7 Oeste 27 Oeste 2.2 -- -- 95
2019-09-21 09:00:00 16.8 8 Oeste 27 Oeste 0.3 -- -- 92
2019-09-21 08:00:00 16.9 6 Oeste 19 Oeste 0.1 -- -- 90
2019-09-21 07:00:00 16.6 6 Oeste 20 Oeste 0.2 -- -- 87
2019-09-21 06:00:00 17 2 Norte 15 Norte 0 -- -- 81
2019-09-21 05:00:00 17.3 6 Sur 14 Sur 0 -- -- 80
2019-09-21 04:00:00 16.3 3 Noroeste 15 Oeste 0 -- -- 86
2019-09-21 03:00:00 16.1 5 Oeste 20 Oeste 0 -- -- 88
2019-09-21 02:00:00 15.4 4 Oeste 16 Oeste 0 -- -- 92
2019-09-21 01:00:00 14.7 0 Calma 10 Nordeste 0 -- -- 93
2019-09-21 00:00:00 14.7 3 Nordeste 8 Nordeste 0 -- -- 91
2019-09-20 23:00:00 15.3 0 Calma -- -- 0 -- -- 88
2019-09-20 22:00:00 16.3 0 Calma 7 Oeste 0 -- -- 86
2019-09-20 21:00:00 16.3 0 Calma 20 Oeste 0 -- -- 86
2019-09-20 20:00:00 17.3 5 Oeste 30 Oeste 0 -- -- 80
2019-09-20 19:00:00 18.9 7 Oeste 32 Oeste 0 -- -- 74
2019-09-20 18:00:00 20.7 7 Oeste 22 Oeste 0 -- -- 68
2019-09-20 17:00:00 20.6 7 Oeste 22 Oeste 0 -- -- 69
2019-09-20 16:00:00 18.9 4 Oeste 14 Oeste 0 -- -- 80
2019-09-20 15:00:00 17.9 5 Oeste 15 Oeste 0 -- -- 83
2019-09-20 14:00:00 17.2 4 Oeste 19 Oeste 0 -- -- 87
2019-09-20 13:00:00 16.5 4 Oeste 13 Oeste 0 -- -- 89
2019-09-20 12:00:00 16.4 4 Oeste 9 Oeste 0 -- -- 92
2019-09-20 11:00:00 16.1 0 Calma 6 Este 0 -- -- 94
2019-09-20 10:00:00 15.7 0 Calma 3 Este 0 -- -- 95
2019-09-20 09:00:00 14.9 0 Calma 3 Oeste 0.1 -- -- 95
2019-09-20 08:00:00 14.7 2 Oeste 14 Oeste 0 -- -- 95
2019-09-20 07:00:00 14.7 5 Oeste 15 Oeste 0 -- -- 94
2019-09-20 06:00:00 14.7 3 Oeste 9 Oeste 0 -- -- 94
2019-09-20 05:00:00 14.8 0 Calma 6 Sudoeste 0 -- -- 94
2019-09-20 04:00:00 14.9 2 Sudoeste 10 Oeste 0 -- -- 93
2019-09-20 03:00:00 14.8 2 Oeste 10 Oeste 0 -- -- 93
2019-09-20 02:00:00 14.9 3 Oeste 12 Oeste 0 -- -- 93
2019-09-20 01:00:00 15 5 Oeste 11 Oeste 0 -- -- 92
2019-09-20 00:00:00 15.2 0 Calma 12 Noroeste 0 -- -- 91
2019-09-19 23:00:00 15.4 4 Oeste 10 Sudoeste 0 -- -- 91
2019-09-19 22:00:00 15.2 3 Oeste 11 Oeste 0 -- -- 91
2019-09-19 21:00:00 15.4 6 Oeste 19 Noroeste 0 -- -- 89
2019-09-19 20:00:00 16.2 5 Oeste 22 Oeste 0 -- -- 82
2019-09-19 19:00:00 18.5 7 Oeste 20 Oeste 0 -- -- 70
2019-09-19 18:00:00 21.4 7 Oeste 21 Oeste 0 -- -- 60
2019-09-19 17:00:00 24.1 5 Oeste 15 Oeste 0 -- -- 58
2019-09-19 16:00:00 23.1 5 Oeste 15 Oeste 0 -- -- 61
2019-09-19 15:00:00 21.5 6 Oeste 15 Oeste 0 -- -- 66
2019-09-19 14:00:00 20.8 5 Oeste 14 Oeste 0 -- -- 71
2019-09-19 13:00:00 18.6 4 Oeste 11 Oeste 0 -- -- 85
2019-09-19 12:00:00 16.8 4 Oeste 10 Sudoeste 0 -- -- 93
2019-09-19 11:00:00 15.5 2 Oeste 7 Este 0 -- -- 94
2019-09-19 10:00:00 14.4 5 Este 13 Este 0 -- -- 94
2019-09-19 09:00:00 14.1 6 Este 10 Nordeste 0 -- -- 95
2019-09-19 08:00:00 14.3 4 Este 7 Este 0 -- -- 94
2019-09-19 07:00:00 14.6 0 Calma 2 Oeste 0 -- -- 94
2019-09-19 06:00:00 14.5 0 Calma 3 Oeste 0 -- -- 95
2019-09-19 05:00:00 14.1 0 Calma 5 Noroeste 0 -- -- 94
2019-09-19 04:00:00 13.6 3 Nordeste 9 Nordeste 0 -- -- 94
2019-09-19 03:00:00 13.5 6 Nordeste 8 Nordeste 0 -- -- 93
2019-09-19 02:00:00 14.5 0 Calma 5 Nordeste 0 -- -- 93
2019-09-19 01:00:00 15 0 Calma 3 Sudoeste 0 -- -- 93
2019-09-19 00:00:00 15.3 0 Calma 5 Oeste 0 -- -- 91
2019-09-18 23:00:00 15.5 0 Calma 6 Oeste 0 -- -- 89
2019-09-18 22:00:00 16.6 0 Calma 9 Oeste 0 -- -- 84
2019-09-18 21:00:00 18.7 2 Noroeste 10 Oeste 0 -- -- 75
2019-09-18 20:00:00 20.7 4 Noroeste 12 Oeste 0 -- -- 64
2019-09-18 19:00:00 22.5 4 Oeste 12 Oeste 0 -- -- 57
2019-09-18 18:00:00 23.5 3 Oeste 15 Oeste 0 -- -- 51
2019-09-18 17:00:00 26.5 4 Oeste 14 Oeste 0 -- -- 47
2019-09-18 16:00:00 27.9 2 Oeste 19 Oeste 0 -- -- 44
2019-09-18 15:00:00 27.4 4 Oeste 12 Oeste 0 -- -- 46
2019-09-18 14:00:00 25.3 4 Oeste 10 Oeste 0 -- -- 49
2019-09-18 13:00:00 24.1 4 Sudoeste 10 Sur 0 -- -- 54
2019-09-18 12:00:00 22.2 6 Este 17 Este 0 -- -- 57
2019-09-18 11:00:00 17.4 6 Este 16 Nordeste 0 -- -- 85
2019-09-18 10:00:00 15.4 9 Nordeste 18 Este 0 -- -- 95
2019-09-18 09:00:00 13.9 2 Norte 20 Nordeste 0 -- -- 95
2019-09-18 08:00:00 13.7 15 Este 21 Nordeste 0 -- -- 95
2019-09-18 07:00:00 14.2 6 Nordeste 15 Nordeste 0 -- -- 95
2019-09-18 06:00:00 14.5 6 Este 10 Este 0 -- -- 95
2019-09-18 05:00:00 15.1 8 Este 12 Este 0 -- -- 94
2019-09-18 04:00:00 16 0 Calma 5 Oeste 0 -- -- 94
2019-09-18 03:00:00 15.9 0 Calma 4 Oeste 0 -- -- 92
2019-09-18 02:00:00 16.3 0 Calma 7 Este 0 -- -- 91
2019-09-18 01:00:00 17.6 0 Calma 6 Nordeste 0 -- -- 89
2019-09-18 00:00:00 18.1 3 Nordeste 9 Este 0 -- -- 83
2019-09-17 23:00:00 18.7 0 Calma 10 Este 0 -- -- 85
2019-09-17 22:00:00 19.2 6 Este 11 Este 0 -- -- 83
2019-09-17 21:00:00 19.7 0 Calma 4 Este 0 -- -- 78
2019-09-15 18:00:00 30.7 9 Nordeste 22 Sudeste 0 -- -- 40
2019-09-15 17:00:00 30.5 7 Este 20 Este 0 -- -- 38
2019-09-15 16:00:00 30.2 9 Este 25 Este 0 -- -- 39
2019-09-15 15:00:00 30.4 9 Este 22 Este 0 -- -- 39
2019-09-15 14:00:00 27.4 6 Sudeste 17 Sudeste 0 -- -- 47
2019-09-15 13:00:00 25.5 10 Este 22 Este 0 -- -- 53
2019-09-15 12:00:00 23.1 12 Este 23 Este 0 -- -- 61
2019-09-15 11:00:00 21.1 12 Este 17 Este 0 -- -- 69
2019-09-15 10:00:00 17.5 9 Este 21 Este 0 -- -- 85
2019-09-15 09:00:00 14.9 10 Nordeste 16 Nordeste 0 -- -- 93
2019-09-15 08:00:00 15.2 4 Nordeste 13 Nordeste 0 -- -- 92
2019-09-15 07:00:00 15.8 4 Nordeste 15 Nordeste 0 -- -- 91
2019-09-15 06:00:00 15.8 6 Nordeste 14 Nordeste 0 -- -- 89
2019-09-15 05:00:00 16.7 0 Calma 9 Nordeste 0 -- -- 86
2019-09-15 04:00:00 17.2 2 Nordeste 13 Este 0 -- -- 84
2019-09-15 03:00:00 17.8 3 Nordeste 10 Este 0 -- -- 81
2019-09-15 02:00:00 18.4 0 Calma 23 Este 0 -- -- 77
2019-09-15 01:00:00 19.6 12 Este 29 Este 0 -- -- 70
2019-09-15 00:00:00 20.8 8 Este 32 Este 0 -- -- 64